Terminal Aerodrome Forecast
Issued by NWS

Home | Current Version | Previous Version | Text Only | Print | Product List | Glossary Off
Versions: 1 2 3 4 5 6 7 8 9 10 11 12 13 14 15 16 17 18 19 20 21

000
FTUS43 KGRB 290500
TAFCWA
TAF
KCWA 290520Z 2906/3006 12003KT 6SM BR SCT006 OVC018
      TEMPO 2906/2909 2SM -FZDZ BR BKN006
     FM290900 31007KT 4SM BR BKN005 OVC012
      TEMPO 2909/2913 2SM -FZDZSN BR BKN005
     FM291300 32008G15KT 5SM -SN BKN009 OVC018
     FM291600 31017G25KT P6SM -SN BKN015 BKN030
     FM300000 32012KT P6SM BKN025 BKN035
      AMD LTD TO CLD VIS AND WIND TIL 291200=

USA.gov is the U.S. government's official web portal to all federal, state and local government web resources and services.